Time;durP1;ratioP1;P1;durP2;ratioP2;P2;SDS_P1;SDS_P2;PMS_P1;PMS_P2;Temp;Humidity;BMP_temperature;BMP_pressure;BME280_temperature;BME280_humidity;BME280_pressure;Samples;Min_cycle;Max_cycle;Signal;HPM_P1;HPM_P2
2021/07/30 00:01:55;;;;;;;4.00;3.10;;;;;;;19.94;64.24;100042.47;5033617;28;20386;-81
2021/07/30 00:04:20;;;;;;;3.20;2.90;;;;;;;19.93;64.03;100035.31;5033235;28;20399;-81
2021/07/30 00:06:46;;;;;;;3.53;3.03;;;;;;;19.91;64.27;100035.66;5033530;28;20555;-81
2021/07/30 00:09:12;;;;;;;3.67;3.03;;;;;;;19.89;64.36;100035.13;5015985;28;20486;-81
2021/07/30 00:11:38;;;;;;;4.43;3.58;;;;;;;19.87;64.52;100037.41;5033614;28;20477;-80
2021/07/30 00:14:04;;;;;;;4.85;3.33;;;;;;;19.85;64.46;100041.59;5033191;28;20920;-81
2021/07/30 00:16:29;;;;;;;3.83;3.30;;;;;;;19.82;64.51;100039.50;5032518;28;20419;-81
2021/07/30 00:18:54;;;;;;;3.45;3.20;;;;;;;19.82;64.48;100045.00;5033432;28;20498;-81
2021/07/30 00:21:20;;;;;;;4.53;3.50;;;;;;;19.80;64.44;100042.53;5033258;28;20776;-80
2021/07/30 00:23:45;;;;;;;3.40;3.20;;;;;;;19.77;64.15;100036.88;5033473;28;20391;-81
2021/07/30 00:26:10;;;;;;;3.63;3.33;;;;;;;19.75;64.41;100039.94;5033106;28;20410;-80
2021/07/30 00:28:36;;;;;;;3.70;2.97;;;;;;;19.75;64.20;100039.94;5032998;28;20456;-80
2021/07/30 00:31:02;;;;;;;4.78;3.47;;;;;;;19.71;64.24;100032.63;5032939;28;20397;-80
2021/07/30 00:33:27;;;;;;;4.53;3.47;;;;;;;19.66;63.95;100030.81;5032766;28;20424;-80
2021/07/30 00:35:52;;;;;;;3.37;3.10;;;;;;;19.55;64.27;100035.78;5033415;28;20411;-80
2021/07/30 00:38:17;;;;;;;5.27;3.27;;;;;;;19.55;64.40;100030.28;5032188;28;20407;-81
2021/07/30 00:40:43;;;;;;;3.27;3.03;;;;;;;19.57;64.67;100030.78;5032351;28;20493;-81
2021/07/30 00:43:08;;;;;;;3.20;2.90;;;;;;;19.58;64.42;100028.84;5032285;28;20411;-81
2021/07/30 00:45:33;;;;;;;4.60;3.20;;;;;;;19.59;64.43;100030.47;5032799;28;20736;-80
2021/07/30 00:47:59;;;;;;;4.17;3.00;;;;;;;19.59;64.59;100027.72;5031348;28;20399;-81
2021/07/30 00:50:25;;;;;;;3.47;2.83;;;;;;;19.56;64.73;100033.84;5032541;28;20411;-80
2021/07/30 00:52:52;;;;;;;4.17;3.30;;;;;;;19.56;64.43;100026.41;5031494;28;20739;-80
2021/07/30 00:55:18;;;;;;;2.80;2.33;;;;;;;19.55;63.96;100023.97;5031787;28;20403;-81
2021/07/30 00:57:44;;;;;;;6.80;3.00;;;;;;;19.52;64.15;100030.94;5032649;28;20376;-81
2021/07/30 01:00:09;;;;;;;4.63;2.60;;;;;;;19.48;64.17;100023.63;5032402;28;20418;-80
2021/07/30 01:02:35;;;;;;;2.95;2.53;;;;;;;19.46;64.03;100023.91;5032509;28;20480;-81
2021/07/30 01:05:00;;;;;;;3.60;2.80;;;;;;;19.43;64.01;100021.00;5032246;28;20407;-81
2021/07/30 01:07:26;;;;;;;2.30;2.20;;;;;;;19.39;64.01;100022.72;5032605;28;20399;-81
2021/07/30 01:09:52;;;;;;;7.32;2.58;;;;;;;19.35;64.09;100018.97;5032416;28;20893;-81
2021/07/30 01:12:17;;;;;;;2.72;2.47;;;;;;;19.30;63.77;100014.41;5032450;28;20453;-80
2021/07/30 01:14:43;;;;;;;5.20;2.73;;;;;;;19.24;63.87;100017.59;5032037;28;20851;-81
2021/07/30 01:17:08;;;;;;;5.90;2.47;;;;;;;19.17;63.88;100024.34;5031721;28;20411;-81
2021/07/30 01:19:33;;;;;;;3.33;2.33;;;;;;;19.08;63.85;100030.91;5031918;28;20395;-80
2021/07/30 01:22:06;;;;;;;4.33;2.90;;;;;;;19.01;63.88;100014.03;5032056;28;20403;-81
2021/07/30 01:24:32;;;;;;;2.80;2.60;;;;;;;18.95;63.89;100018.03;5030055;28;20466;-81
2021/07/30 01:26:58;;;;;;;3.50;2.50;;;;;;;18.87;64.12;100013.28;5031635;28;20793;-80
2021/07/30 01:29:27;;;;;;;4.68;2.63;;;;;;;18.76;64.30;100014.63;5030229;28;20803;-80
2021/07/30 01:31:52;;;;;;;3.78;3.40;;;;;;;18.69;64.46;100015.06;5030986;28;20414;-80
2021/07/30 01:34:17;;;;;;;5.70;3.08;;;;;;;18.62;64.94;100009.19;5032106;28;20392;-80
2021/07/30 01:36:42;;;;;;;3.67;3.33;;;;;;;18.63;65.24;100013.56;5031800;28;20395;-81
2021/07/30 01:39:08;;;;;;;5.90;2.90;;;;;;;18.67;65.54;100014.56;5031704;28;20418;-80
2021/07/30 01:41:33;;;;;;;5.57;3.40;;;;;;;18.72;65.46;100014.44;5031820;28;20437;-80
2021/07/30 01:43:58;;;;;;;5.30;3.00;;;;;;;18.74;65.34;100009.44;5031755;28;20391;-81
2021/07/30 01:46:23;;;;;;;5.40;3.40;;;;;;;18.76;65.61;100015.47;5031283;28;20484;-80
2021/07/30 01:48:49;;;;;;;3.73;3.40;;;;;;;18.77;65.39;100016.28;5032036;28;20392;-81
2021/07/30 01:51:14;;;;;;;3.43;2.83;;;;;;;18.76;65.60;100014.63;5028864;28;20411;-81
2021/07/30 01:53:39;;;;;;;4.03;3.30;;;;;;;18.77;65.66;100019.03;5029162;28;20414;-78
2021/07/30 01:56:05;;;;;;;6.00;3.30;;;;;;;18.78;65.56;100012.38;5030528;28;20411;-81
2021/07/30 01:58:34;;;;;;;2.97;2.77;;;;;;;18.78;65.32;100009.63;5029768;28;20795;-81
2021/07/30 02:01:00;;;;;;;4.68;2.97;;;;;;;18.77;64.86;100016.28;5029912;28;20433;-81
2021/07/30 02:03:25;;;;;;;5.07;3.05;;;;;;;18.77;64.75;100008.03;5031160;28;20399;-81
2021/07/30 02:05:51;;;;;;;3.43;2.70;;;;;;;18.77;64.62;100006.06;5030543;28;20490;-80
2021/07/30 02:08:16;;;;;;;4.77;2.87;;;;;;;18.75;64.47;100002.84;5030387;28;20434;-80
2021/07/30 02:10:41;;;;;;;3.40;2.50;;;;;;;18.75;64.41;100002.03;5031397;28;20926;-80
2021/07/30 02:15:50;;;;;;;3.25;3.05;;;;;;;18.70;64.69;100002.16;5031078;28;20425;-79
2021/07/30 02:18:16;;;;;;;3.17;2.55;;;;;;;18.65;64.74;100001.16;5030723;28;20894;-79
2021/07/30 02:20:41;;;;;;;3.33;2.77;;;;;;;18.61;64.79;99997.38;5031157;28;20478;-80
2021/07/30 02:23:06;;;;;;;2.93;2.73;;;;;;;18.58;64.96;100008.16;5030954;28;20774;-80
2021/07/30 02:25:32;;;;;;;3.40;2.63;;;;;;;18.56;64.58;99993.97;5030458;28;20977;-79
2021/07/30 02:27:57;;;;;;;4.20;3.27;;;;;;;18.51;64.56;99999.53;5031292;28;20395;-79
2021/07/30 02:30:22;;;;;;;3.40;2.47;;;;;;;18.44;64.81;99997.19;5029679;28;20505;-79
2021/07/30 02:32:47;;;;;;;3.63;3.33;;;;;;;18.45;64.79;99998.00;5013225;28;20399;-79
2021/07/30 02:35:13;;;;;;;5.10;2.90;;;;;;;18.42;64.83;99998.63;5027679;28;20944;-80
2021/07/30 02:37:38;;;;;;;6.10;2.60;;;;;;;18.39;64.68;99991.00;5031088;28;20403;-79
2021/07/30 02:40:04;;;;;;;7.23;2.90;;;;;;;18.41;64.48;99992.31;5030811;28;20882;-79
2021/07/30 02:42:29;;;;;;;3.60;2.50;;;;;;;18.46;64.43;99994.16;5029950;28;20525;-79
2021/07/30 02:44:55;;;;;;;2.50;2.40;;;;;;;18.49;64.42;99983.38;5030877;28;20497;-79
2021/07/30 02:47:20;;;;;;;3.15;2.60;;;;;;;18.49;64.23;99985.31;5030855;28;20851;-79
2021/07/30 02:49:45;;;;;;;5.37;2.20;;;;;;;18.43;64.38;99986.53;5030792;28;20517;-79
2021/07/30 02:52:10;;;;;;;3.77;2.47;;;;;;;18.39;64.41;99991.81;5030904;28;20772;-79
2021/07/30 02:54:36;;;;;;;4.33;2.97;;;;;;;18.38;64.47;99983.88;5029723;28;20402;-79
2021/07/30 02:57:01;;;;;;;3.97;2.75;;;;;;;18.39;65.06;99985.53;5030020;28;20407;-79
2021/07/30 02:59:26;;;;;;;4.67;2.60;;;;;;;18.36;65.07;99977.91;5028772;28;20886;-79
2021/07/30 03:01:52;;;;;;;2.30;2.10;;;;;;;18.35;65.32;99979.84;5029446;28;20406;-79
2021/07/30 03:04:17;;;;;;;4.77;3.43;;;;;;;18.35;64.83;99982.56;5030545;28;20489;-79
2021/07/30 03:06:42;;;;;;;3.20;2.90;;;;;;;18.36;64.65;99980.66;5030879;28;20414;-79
2021/07/30 03:09:08;;;;;;;2.97;2.77;;;;;;;18.36;64.97;99975.97;5029735;28;20391;-79
2021/07/30 03:11:33;;;;;;;4.82;3.40;;;;;;;18.41;65.22;99969.56;5040203;28;20430;-79
2021/07/30 03:13:58;;;;;;;4.50;2.33;;;;;;;18.44;65.36;99969.75;5030950;28;20401;-79
2021/07/30 03:16:23;;;;;;;2.70;2.50;;;;;;;18.47;65.13;99971.91;5032130;28;20403;-79
2021/07/30 03:18:49;;;;;;;2.43;2.17;;;;;;;18.47;65.31;99962.84;5034642;28;20739;-79
2021/07/30 03:21:14;;;;;;;5.70;3.00;;;;;;;18.48;65.10;99962.53;5032842;28;20468;-79
2021/07/30 03:23:39;;;;;;;4.10;2.67;;;;;;;18.51;65.39;99961.94;5033802;28;20399;-79
2021/07/30 03:26:05;;;;;;;4.97;2.80;;;;;;;18.55;65.10;99967.63;5034007;28;20421;-79
2021/07/30 03:28:30;;;;;;;3.93;2.60;;;;;;;18.58;65.37;99956.03;5034208;28;20401;-79
2021/07/30 03:31:00;;;;;;;3.87;2.40;;;;;;;18.58;65.36;99953.28;5034117;28;20472;-79
2021/07/30 03:33:25;;;;;;;3.00;2.78;;;;;;;18.57;65.42;99955.22;5034422;28;20494;-79
2021/07/30 03:35:51;;;;;;;3.33;2.90;;;;;;;18.55;65.09;99959.41;5033907;28;20866;-79
2021/07/30 03:38:16;;;;;;;5.33;2.90;;;;;;;18.52;65.20;99955.34;5033862;28;20486;-79
2021/07/30 03:40:42;;;;;;;4.30;3.10;;;;;;;18.50;65.28;99954.03;5034105;28;20418;-79
2021/07/30 03:43:08;;;;;;;5.47;3.00;;;;;;;18.47;65.08;99954.63;5034031;28;20398;-79
2021/07/30 03:45:34;;;;;;;5.22;2.97;;;;;;;18.42;65.29;99957.47;5032855;28;20399;-79
2021/07/30 03:47:59;;;;;;;6.07;3.00;;;;;;;18.38;65.28;99956.44;5031785;28;20409;-79
2021/07/30 03:50:24;;;;;;;2.80;2.30;;;;;;;18.32;65.23;99958.50;5033812;28;20482;-79
2021/07/30 03:52:49;;;;;;;3.40;2.50;;;;;;;18.27;64.74;99957.81;5034032;28;20920;-79
2021/07/30 03:55:15;;;;;;;4.30;2.40;;;;;;;18.24;64.60;99961.19;5032513;28;20446;-79
2021/07/30 03:57:40;;;;;;;4.10;2.70;;;;;;;18.18;64.21;99959.66;5034162;28;20742;-79
2021/07/30 04:00:06;;;;;;;3.43;2.60;;;;;;;18.08;64.49;99955.19;5043021;28;20477;-79
2021/07/30 04:02:31;;;;;;;4.77;2.53;;;;;;;18.04;64.39;99963.25;5033624;28;20477;-79
2021/07/30 04:04:56;;;;;;;3.17;2.63;;;;;;;17.98;64.71;99958.16;5033741;28;20403;-80
2021/07/30 04:07:22;;;;;;;3.07;2.47;;;;;;;17.95;64.63;99951.34;5033510;28;20445;-79
2021/07/30 04:09:47;;;;;;;2.60;2.40;;;;;;;17.94;64.39;99957.97;5048842;28;20435;-80
2021/07/30 04:12:12;;;;;;;4.18;2.78;;;;;;;17.93;64.42;99959.06;5033838;28;20420;-79
2021/07/30 04:14:38;;;;;;;7.00;5.13;;;;;;;17.93;64.53;99955.50;5017021;28;20469;-79
2021/07/30 04:17:03;;;;;;;10.03;9.07;;;;;;;17.91;64.67;99955.00;5032676;28;20472;-80
2021/07/30 04:19:29;;;;;;;8.50;7.70;;;;;;;17.84;64.73;99949.94;5032451;28;20421;-80
2021/07/30 04:21:54;;;;;;;6.30;5.70;;;;;;;17.76;64.87;99947.91;5032428;28;20414;-79
2021/07/30 04:24:19;;;;;;;2.97;2.77;;;;;;;17.80;65.27;99951.66;5033186;28;20415;-79
2021/07/30 04:26:45;;;;;;;3.67;2.73;;;;;;;17.85;65.06;99948.03;5033179;28;20391;-79
2021/07/30 04:29:10;;;;;;;3.45;2.78;;;;;;;17.86;64.13;99955.91;5032668;28;20395;-79
2021/07/30 04:31:40;;;;;;;3.10;2.60;;;;;;;17.88;63.70;99956.41;5032708;28;20403;-79
2021/07/30 04:34:06;;;;;;;4.85;3.00;;;;;;;17.89;64.43;99957.22;5033021;28;20740;-79
2021/07/30 04:36:31;;;;;;;3.63;2.73;;;;;;;17.91;64.46;99955.84;5033089;28;20409;-80
2021/07/30 04:38:57;;;;;;;3.30;3.07;;;;;;;17.93;65.03;99955.50;5032978;28;20869;-79
2021/07/30 04:41:23;;;;;;;3.63;2.80;;;;;;;17.92;64.91;99956.63;5032814;28;20419;-79
2021/07/30 04:43:48;;;;;;;3.97;2.80;;;;;;;17.87;64.95;99951.25;5032464;28;20886;-79
2021/07/30 04:46:17;;;;;;;6.77;3.10;;;;;;;17.85;65.08;99953.50;5030213;28;20422;-79
2021/07/30 04:48:43;;;;;;;8.32;3.13;;;;;;;17.83;65.03;99962.00;5032080;28;20407;-79
2021/07/30 04:51:09;;;;;;;5.63;3.23;;;;;;;17.78;65.24;99962.13;5031559;28;20387;-79
2021/07/30 04:53:34;;;;;;;3.90;3.30;;;;;;;17.78;65.29;99961.31;5032511;28;20949;-79
2021/07/30 04:56:00;;;;;;;3.10;2.90;;;;;;;17.71;65.79;99958.16;5031582;28;20391;-79
2021/07/30 04:58:25;;;;;;;4.07;2.70;;;;;;;17.71;66.18;99963.63;5032155;28;20399;-79
2021/07/30 05:00:50;;;;;;;4.20;3.50;;;;;;;17.73;66.56;99964.13;5032753;28;20959;-79
2021/07/30 05:03:15;;;;;;;7.07;3.23;;;;;;;17.70;66.75;99960.09;5032421;28;20399;-79
2021/07/30 05:05:41;;;;;;;4.53;2.60;;;;;;;17.72;66.65;99955.09;5025912;28;20399;-79
2021/07/30 05:08:06;;;;;;;5.47;3.27;;;;;;;17.78;66.85;99956.66;5023727;28;20405;-79
2021/07/30 05:10:32;;;;;;;4.32;3.20;;;;;;;17.85;67.10;99959.78;5031235;28;20399;-79
2021/07/30 05:12:57;;;;;;;4.33;3.13;;;;;;;17.91;67.42;99958.56;5031437;28;20427;-79
2021/07/30 05:15:22;;;;;;;5.23;3.00;;;;;;;17.97;67.90;99951.88;5047401;28;20484;-79
2021/07/30 05:17:47;;;;;;;4.70;3.40;;;;;;;18.04;67.63;99965.16;5032392;28;20406;-79
2021/07/30 05:20:13;;;;;;;4.60;2.93;;;;;;;18.09;67.87;99962.31;5028908;28;20422;-80
2021/07/30 05:22:39;;;;;;;4.33;3.43;;;;;;;18.11;67.53;99958.13;5031525;28;20401;-79
2021/07/30 05:25:04;;;;;;;7.00;3.35;;;;;;;18.14;67.71;99967.69;5031881;28;20967;-79
2021/07/30 05:27:30;;;;;;;5.85;3.08;;;;;;;18.17;68.34;99953.38;5019151;28;20445;-79
2021/07/30 05:29:58;;;;;;;6.60;3.07;;;;;;;18.21;67.93;99953.56;5031739;28;20754;-79
2021/07/30 05:32:24;;;;;;;4.75;3.22;;;;;;;18.25;67.98;99949.06;5031050;28;20392;-79
2021/07/30 05:34:49;;;;;;;5.23;3.23;;;;;;;18.24;67.39;99955.69;5030628;28;20407;-79
2021/07/30 05:37:14;;;;;;;4.70;3.03;;;;;;;18.23;67.48;99946.66;5030401;28;20410;-79
2021/07/30 05:39:41;;;;;;;3.20;3.00;;;;;;;18.26;67.16;99954.25;5030502;28;20890;-79
2021/07/30 05:42:06;;;;;;;4.05;3.45;;;;;;;18.23;66.41;99946.66;5009536;28;20407;-79
2021/07/30 05:44:32;;;;;;;5.18;3.55;;;;;;;18.22;66.29;99952.44;5031060;28;20486;-78
2021/07/30 05:46:57;;;;;;;3.90;3.00;;;;;;;18.23;66.44;99943.09;5029184;28;20485;-79
2021/07/30 05:49:22;;;;;;;6.30;3.63;;;;;;;18.26;66.66;99946.03;5035128;28;20408;-80
2021/07/30 05:51:48;;;;;;;6.03;3.07;;;;;;;18.28;66.53;99946.53;5038134;28;20407;-80
2021/07/30 05:54:13;;;;;;;4.77;3.63;;;;;;;18.31;66.43;99943.16;5031687;28;20482;-80
2021/07/30 05:56:38;;;;;;;3.77;3.40;;;;;;;18.33;66.75;99951.91;5037784;28;20490;-81
2021/07/30 05:59:03;;;;;;;4.03;3.73;;;;;;;18.34;66.73;99949.97;5029669;28;20482;-79
2021/07/30 06:01:29;;;;;;;3.85;3.30;;;;;;;18.35;66.81;99944.19;5030659;28;20464;-78
2021/07/30 06:03:55;;;;;;;4.37;3.70;;;;;;;18.33;66.73;99945.59;5030184;28;20407;-79
2021/07/30 06:06:20;;;;;;;3.80;3.50;;;;;;;18.32;66.74;99941.22;5034196;28;20407;-78
2021/07/30 06:08:45;;;;;;;5.40;3.50;;;;;;;18.31;66.76;99937.66;5024269;28;20407;-79
2021/07/30 06:11:11;;;;;;;3.57;3.37;;;;;;;18.34;66.93;99936.28;5027754;28;20469;-79
2021/07/30 06:13:36;;;;;;;3.90;3.57;;;;;;;18.41;66.92;99934.69;5028257;28;20430;-79
2021/07/30 06:16:01;;;;;;;5.07;3.53;;;;;;;18.44;66.50;99928.59;5028715;28;20882;-79
2021/07/30 06:18:30;;;;;;;3.53;3.23;;;;;;;18.47;66.27;99925.25;5028781;28;20442;-79
2021/07/30 06:20:55;;;;;;;3.88;3.55;;;;;;;18.46;66.27;99925.56;5013362;28;20942;-78
2021/07/30 06:23:21;;;;;;;3.27;3.00;;;;;;;18.48;66.14;99935.09;5030893;28;20434;-78
2021/07/30 06:25:46;;;;;;;4.93;3.67;;;;;;;18.57;66.07;99926.97;5013284;28;20774;-80
2021/07/30 06:28:11;;;;;;;4.17;3.80;;;;;;;18.62;66.01;99924.91;5031033;28;20411;-80
2021/07/30 06:30:36;;;;;;;5.03;4.13;;;;;;;18.65;65.67;99929.78;5031018;28;20407;-80
2021/07/30 06:33:10;;;;;;;3.53;3.30;;;;;;;18.70;65.40;99934.34;5030874;28;20414;-79
2021/07/30 06:35:35;;;;;;;4.38;3.30;;;;;;;18.71;65.57;99930.47;5030893;28;20486;-80
2021/07/30 06:38:00;;;;;;;4.97;3.42;;;;;;;18.74;65.45;99934.53;5030623;28;20554;-80
2021/07/30 06:40:26;;;;;;;3.50;3.30;;;;;;;18.71;65.19;99937.88;5030802;28;20414;-80
2021/07/30 06:42:51;;;;;;;3.30;3.10;;;;;;;18.69;65.31;99934.66;5040735;28;20423;-80
2021/07/30 06:45:17;;;;;;;7.40;3.73;;;;;;;18.72;65.05;99923.06;5030099;28;20429;-78
2021/07/30 06:47:43;;;;;;;4.95;3.63;;;;;;;18.80;65.41;99931.38;5030047;28;20418;-77
2021/07/30 06:50:11;;;;;;;3.67;3.30;;;;;;;18.88;65.54;99929.78;5030898;28;20399;-78
2021/07/30 06:52:37;;;;;;;4.47;3.65;;;;;;;18.91;65.50;99932.72;5027686;28;20860;-77
2021/07/30 06:55:02;;;;;;;2.77;2.67;;;;;;;18.95;65.62;99933.72;5034854;28;20403;-78
2021/07/30 06:57:28;;;;;;;3.72;3.28;;;;;;;18.97;65.02;99936.94;5035105;28;20448;-78
2021/07/30 06:59:53;;;;;;;4.40;3.43;;;;;;;18.98;65.31;99932.28;5035749;28;20419;-78
2021/07/30 07:02:18;;;;;;;3.17;2.93;;;;;;;18.97;65.44;99938.88;5032304;28;20446;-78
2021/07/30 07:04:44;;;;;;;3.40;3.10;;;;;;;18.98;65.58;99937.78;5032923;28;20444;-78
2021/07/30 07:07:09;;;;;;;7.60;3.50;;;;;;;19.01;65.72;99939.88;5017943;28;20916;-77
2021/07/30 07:09:34;;;;;;;3.37;3.07;;;;;;;19.02;65.60;99936.03;5033532;28;20411;-78
2021/07/30 07:12:03;;;;;;;4.10;3.50;;;;;;;19.08;65.48;99945.75;5033385;28;20413;-79
2021/07/30 07:14:29;;;;;;;3.22;2.92;;;;;;;19.11;65.10;99937.69;5034033;28;20426;-78
2021/07/30 07:16:55;;;;;;;4.40;3.13;;;;;;;19.16;64.55;99937.56;5035476;28;20403;-78
2021/07/30 07:19:20;;;;;;;5.30;3.50;;;;;;;19.21;64.58;99933.88;5015791;28;20541;-79
2021/07/30 07:21:46;;;;;;;5.00;4.07;;;;;;;19.24;64.61;99935.19;5031997;28;20431;-80
2021/07/30 07:24:11;;;;;;;4.78;3.33;;;;;;;19.29;64.07;99935.88;5033263;28;20419;-78
2021/07/30 07:26:38;;;;;;;6.37;3.27;;;;;;;19.35;63.92;99933.78;5034287;28;20391;-79
2021/07/30 07:29:04;;;;;;;4.22;3.20;;;;;;;19.37;63.29;99929.59;5033559;28;20395;-78
2021/07/30 07:31:32;;;;;;;3.30;3.10;;;;;;;19.42;63.30;99929.50;5031929;28;20507;-78
2021/07/30 07:33:57;;;;;;;4.13;3.17;;;;;;;19.49;63.57;99924.38;5034617;28;20405;-78
2021/07/30 07:36:23;;;;;;;5.43;2.90;;;;;;;19.58;63.60;99925.22;5033700;28;20445;-78
2021/07/30 07:38:48;;;;;;;3.73;3.13;;;;;;;19.67;63.20;99922.50;5033853;28;20395;-78
2021/07/30 07:41:13;;;;;;;4.38;3.38;;;;;;;19.73;63.44;99923.97;5033580;28;20893;-79
2021/07/30 07:43:39;;;;;;;4.57;3.00;;;;;;;19.78;62.90;99915.59;5033499;28;20406;-79
2021/07/30 07:46:04;;;;;;;5.43;3.30;;;;;;;19.80;62.11;99916.06;5033550;28;20410;-79
2021/07/30 07:48:30;;;;;;;6.80;2.60;;;;;;;19.82;62.35;99908.31;5015983;28;20435;-78
2021/07/30 07:50:55;;;;;;;2.97;2.77;;;;;;;19.87;62.65;99921.09;5033179;28;20391;-78
2021/07/30 07:53:20;;;;;;;8.63;3.83;;;;;;;19.93;62.42;99911.56;5040700;28;20411;-79
2021/07/30 07:55:46;;;;;;;3.90;3.17;;;;;;;19.99;61.25;99910.31;5033206;28;20464;-78
2021/07/30 07:58:12;;;;;;;3.33;2.95;;;;;;;20.06;60.52;99905.13;5033441;28;20516;-78
2021/07/30 08:00:38;;;;;;;8.65;3.70;;;;;;;20.14;60.44;99902.41;5032483;28;20498;-78
2021/07/30 08:03:03;;;;;;;3.50;3.00;;;;;;;20.20;60.71;99895.59;5032197;28;20875;-78
2021/07/30 08:05:29;;;;;;;4.10;2.75;;;;;;;20.26;60.75;99896.25;5033187;28;21137;-79
2021/07/30 08:07:54;;;;;;;4.97;3.00;;;;;;;20.33;60.68;99899.38;5033972;28;20403;-79
2021/07/30 08:10:20;;;;;;;3.10;2.80;;;;;;;20.37;60.59;99897.59;5032326;28;20762;-78
2021/07/30 08:12:45;;;;;;;6.30;3.03;;;;;;;20.46;59.63;99897.59;5033239;28;20446;-78
2021/07/30 08:15:11;;;;;;;3.63;3.30;;;;;;;20.50;60.03;99896.63;5033468;28;20474;-78
2021/07/30 08:17:37;;;;;;;3.23;2.77;;;;;;;20.54;58.98;99897.59;5015941;28;20774;-78
2021/07/30 08:20:04;;;;;;;5.97;2.30;;;;;;;20.60;59.30;99901.00;5031946;28;20461;-78
2021/07/30 08:22:30;;;;;;;6.20;2.67;;;;;;;20.69;59.13;99904.53;5031673;28;20407;-78
2021/07/30 08:24:55;;;;;;;3.20;2.88;;;;;;;20.76;59.38;99909.56;5033354;28;20422;-78
2021/07/30 08:27:20;;;;;;;3.63;3.33;;;;;;;20.84;59.05;99912.31;5033277;28;20875;-78
2021/07/30 08:29:45;;;;;;;3.60;3.30;;;;;;;20.86;58.02;99909.22;5033335;28;20403;-78
2021/07/30 08:32:11;;;;;;;4.27;3.30;;;;;;;20.92;59.02;99914.25;5032964;28;20936;-78
2021/07/30 08:34:39;;;;;;;4.20;3.70;;;;;;;21.01;59.50;99917.00;5029336;28;20418;-78
2021/07/30 08:37:06;;;;;;;4.03;3.72;;;;;;;21.09;60.00;99908.75;5032957;28;20481;-78
2021/07/30 08:39:31;;;;;;;3.70;3.33;;;;;;;21.19;59.58;99910.31;5031718;28;20379;-79
2021/07/30 08:42:01;;;;;;;3.50;3.20;;;;;;;21.23;58.72;99911.31;5032062;28;20422;-79
2021/07/30 08:44:27;;;;;;;5.97;3.63;;;;;;;21.29;58.82;99914.69;5032284;28;20406;-80
2021/07/30 08:46:53;;;;;;;4.83;3.80;;;;;;;21.38;58.60;99904.44;5031578;28;20918;-80
2021/07/30 08:49:19;;;;;;;6.55;3.45;;;;;;;21.46;59.13;99896.16;5031386;28;20407;-80
2021/07/30 08:51:49;;;;;;;5.30;3.53;;;;;;;21.59;60.08;99910.84;5031014;28;20908;-80
2021/07/30 08:54:15;;;;;;;4.00;3.45;;;;;;;21.68;58.38;99906.09;5032335;28;20433;-80
2021/07/30 08:56:40;;;;;;;4.83;3.70;;;;;;;21.74;58.21;99905.56;5032844;28;20399;-79
2021/07/30 08:59:11;;;;;;;3.80;3.50;;;;;;;21.82;58.05;99912.19;5033281;28;20728;-80
2021/07/30 09:01:36;;;;;;;3.97;3.60;;;;;;;21.90;58.70;99905.06;5028025;28;20430;-80
2021/07/30 09:04:02;;;;;;;5.18;4.68;;;;;;;22.04;58.37;99892.63;5032363;28;20480;-80
2021/07/30 09:06:28;;;;;;;3.60;3.30;;;;;;;22.15;58.66;99895.78;5031712;28;20497;-79
2021/07/30 09:08:53;;;;;;;4.50;3.63;;;;;;;22.29;57.42;99890.03;5033435;28;20890;-79
2021/07/30 09:11:35;;;;;;;3.57;2.90;;;;;;;22.47;56.20;99880.44;5032015;28;20422;-78
2021/07/30 09:14:08;;;;;;;3.50;3.20;;;;;;;22.66;56.52;99883.53;5032754;28;20398;-78
2021/07/30 09:16:45;;;;;;;3.80;3.40;;;;;;;22.79;55.11;99884.44;5029186;28;20439;-79
2021/07/30 09:19:11;;;;;;;3.65;3.00;;;;;;;22.85;55.18;99881.13;5029580;28;20927;-78
2021/07/30 09:21:36;;;;;;;3.20;3.00;;;;;;;22.90;55.01;99878.13;5027416;28;20501;-77
2021/07/30 09:24:08;;;;;;;3.57;3.17;;;;;;;22.93;54.05;99874.69;5032192;28;20445;-79
2021/07/30 09:26:43;;;;;;;3.50;3.28;;;;;;;23.08;54.11;99882.34;5027242;28;20476;-78
2021/07/30 09:29:18;;;;;;;3.40;3.10;;;;;;;23.31;53.63;99871.66;5015143;28;20445;-78
2021/07/30 09:31:50;;;;;;;4.68;3.47;;;;;;;23.41;53.61;99865.72;5035397;28;20391;-78
2021/07/30 09:34:15;;;;;;;3.85;3.45;;;;;;;23.58;53.38;99867.44;5014774;28;20912;-78
2021/07/30 09:36:42;;;;;;;3.70;3.03;;;;;;;23.72;53.11;99862.38;5031308;28;20407;-78
2021/07/30 09:39:07;;;;;;;7.75;3.97;;;;;;;23.90;53.31;99871.22;5039591;28;20412;-78
2021/07/30 09:41:36;;;;;;;3.47;3.17;;;;;;;24.03;51.96;99870.06;5033092;28;20415;-78
2021/07/30 09:44:06;;;;;;;4.85;3.22;;;;;;;24.22;52.56;99860.03;5029453;28;20395;-78
2021/07/30 09:46:33;;;;;;;4.18;2.83;;;;;;;24.39;52.07;99864.47;5031663;28;20398;-79
2021/07/30 09:48:59;;;;;;;3.70;2.45;;;;;;;24.58;50.18;99859.09;5030981;28;20399;-78
2021/07/30 09:51:33;;;;;;;3.72;2.85;;;;;;;24.75;50.18;99866.28;5031861;28;20403;-79
2021/07/30 09:53:59;;;;;;;3.03;2.70;;;;;;;25.03;49.16;99867.09;5031338;28;20410;-79
2021/07/30 09:56:26;;;;;;;2.60;2.50;;;;;;;25.35;48.21;99870.72;5031075;28;20798;-79
2021/07/30 09:58:55;;;;;;;3.92;3.00;;;;;;;25.64;46.14;99875.03;5029768;28;20918;-78
2021/07/30 10:01:34;;;;;;;4.32;2.78;;;;;;;26.03;46.34;99873.16;5029330;28;20423;-78
2021/07/30 10:04:27;;;;;;;3.20;2.80;;;;;;;26.70;43.52;99866.31;5028288;28;20433;-80
2021/07/30 10:06:58;;;;;;;4.32;2.78;;;;;;;27.98;42.11;99861.84;5028507;28;20469;-79
2021/07/30 10:09:24;;;;;;;3.17;2.30;;;;;;;28.50;40.45;99854.63;5039879;28;20432;-79
2021/07/30 10:11:50;;;;;;;2.55;2.35;;;;;;;28.59;40.27;99852.31;5037772;28;21512;-79
2021/07/30 10:14:17;;;;;;;2.83;2.40;;;;;;;28.85;40.59;99846.69;5033865;28;20502;-79
2021/07/30 10:16:53;;;;;;;3.33;2.30;;;;;;;29.06;38.87;99846.09;5035243;28;20421;-78
2021/07/30 10:19:19;;;;;;;2.65;2.55;;;;;;;30.68;36.23;99841.72;5051176;28;20404;-79
2021/07/30 10:21:44;;;;;;;3.90;2.73;;;;;;;33.11;32.90;99830.56;5038033;28;20870;-81
2021/07/30 10:24:11;;;;;;;2.63;2.43;;;;;;;34.63;29.39;99827.09;5035549;28;20419;-80
2021/07/30 10:26:39;;;;;;;2.60;2.40;;;;;;;35.76;28.33;99828.19;5034997;28;20399;-79
2021/07/30 10:29:07;;;;;;;3.00;2.35;;;;;;;36.54;25.02;99843.63;5051252;28;20399;-80
2021/07/30 10:31:50;;;;;;;3.20;2.90;;;;;;;36.86;25.45;99848.56;5036054;28;20433;-81
2021/07/30 10:34:45;;;;;;;3.40;2.40;;;;;;;37.03;25.42;99846.59;5025319;28;20414;-80
2021/07/30 10:37:37;;;;;;;3.97;2.50;;;;;;;37.00;25.68;99842.63;5026604;28;20423;-81
2021/07/30 10:40:23;;;;;;;3.30;2.70;;;;;;;35.00;26.86;99840.25;5037513;28;20492;-80
2021/07/30 10:43:05;;;;;;;2.83;2.73;;;;;;;34.83;27.40;99830.03;5031573;28;20407;-79
2021/07/30 10:45:37;;;;;;;3.73;2.63;;;;;;;35.70;27.58;99820.66;5030539;28;20425;-78
2021/07/30 10:48:11;;;;;;;2.63;2.47;;;;;;;35.86;27.03;99830.00;5031039;28;20395;-76
2021/07/30 10:50:56;;;;;;;2.35;2.22;;;;;;;36.62;25.50;99813.22;5030523;28;20399;-79
2021/07/30 10:53:33;;;;;;;2.90;2.70;;;;;;;37.37;24.76;99813.09;5030764;28;20502;-77
2021/07/30 10:56:00;;;;;;;3.25;2.75;;;;;;;37.93;24.42;99808.03;5031588;28;20395;-78
2021/07/30 10:58:40;;;;;;;3.13;2.55;;;;;;;38.39;23.58;99816.03;5031266;28;20431;-78
2021/07/30 11:01:06;;;;;;;2.78;2.38;;;;;;;38.65;23.29;99819.69;5031026;28;20510;-76
2021/07/30 11:03:53;;;;;;;2.75;2.55;;;;;;;39.31;22.91;99809.53;5030174;28;20391;-77
2021/07/30 11:06:18;;;;;;;2.78;2.47;;;;;;;39.41;21.65;99806.34;5028719;28;20438;-77
2021/07/30 11:08:58;;;;;;;3.97;2.80;;;;;;;39.48;22.45;99807.34;5030543;28;20484;-77
2021/07/30 11:11:42;;;;;;;3.00;2.70;;;;;;;39.27;22.84;99809.66;5030820;28;20387;-77
2021/07/30 11:14:11;;;;;;;3.00;2.67;;;;;;;38.13;23.81;99810.69;5028893;28;20414;-77
2021/07/30 11:16:36;;;;;;;2.40;2.30;;;;;;;37.14;25.62;99797.09;5030320;28;20448;-79
2021/07/30 11:19:03;;;;;;;2.90;2.70;;;;;;;37.08;24.82;99795.25;5030335;28;20524;-78
2021/07/30 11:21:29;;;;;;;2.65;2.55;;;;;;;37.32;24.50;99805.13;5030825;28;20823;-76
2021/07/30 11:23:54;;;;;;;3.22;2.60;;;;;;;37.06;25.18;99787.19;5030637;28;20423;-78
2021/07/30 11:26:20;;;;;;;3.20;2.70;;;;;;;36.75;25.60;99800.78;5029412;28;20442;-78
2021/07/30 11:29:05;;;;;;;3.73;2.73;;;;;;;34.70;27.79;99814.94;5028543;28;20417;-79
2021/07/30 11:31:30;;;;;;;3.10;2.90;;;;;;;33.12;30.75;99802.09;5032861;28;20407;-78
2021/07/30 11:33:55;;;;;;;3.23;2.70;;;;;;;32.78;31.74;99796.28;5030492;28;20494;-77